Time;durP1;ratioP1;P1;durP2;ratioP2;P2;SDS_P1;SDS_P2;PMS_P1;PMS_P2;Temp;Humidity;BMP_temperature;BMP_pressure;BME280_temperature;BME280_humidity;BME280_pressure;Samples;Min_cycle;Max_cycle;Signal;HPM_P1;HPM_P2
2022/06/04 00:00:59;;;;;;;12.60;8.57;;;20.60;83.10;;;;;;4883805;29;21028;-75
2022/06/04 00:03:28;;;;;;;12.60;9.53;;;20.60;83.00;;;;;;4883339;29;21035;-75
2022/06/04 00:05:58;;;;;;;10.60;8.60;;;20.60;83.00;;;;;;4890052;29;20503;-75
2022/06/04 00:08:27;;;;;;;11.97;9.10;;;20.50;82.90;;;;;;4877859;29;21017;-75
2022/06/04 00:16:30;;;;;;;12.73;9.73;;;20.50;82.90;;;;;;4860748;29;20496;-74
2022/06/04 00:18:58;;;;;;;11.50;9.97;;;20.50;82.80;;;;;;4892900;29;20468;-75
2022/06/04 00:21:27;;;;;;;11.93;9.20;;;20.50;82.80;;;;;;4885521;29;20461;-75
2022/06/04 00:23:55;;;;;;;12.40;9.30;;;20.50;82.90;;;;;;4889644;29;20522;-75
2022/06/04 00:26:23;;;;;;;13.63;9.10;;;20.50;83.00;;;;;;4884976;29;20489;-75
2022/06/04 00:28:52;;;;;;;11.77;8.93;;;20.50;83.00;;;;;;4875595;29;20568;-75
2022/06/04 00:31:21;;;;;;;11.47;8.33;;;20.50;83.00;;;;;;4875387;29;20861;-75
2022/06/04 00:33:49;;;;;;;10.67;8.40;;;20.50;83.00;;;;;;4882469;29;20461;-76
2022/06/04 00:36:17;;;;;;;12.67;9.97;;;20.50;82.90;;;;;;4890144;29;20498;-75
2022/06/04 00:38:45;;;;;;;11.70;8.83;;;20.50;82.90;;;;;;4889246;29;20902;-76
2022/06/04 00:41:24;;;;;;;12.47;9.37;;;20.50;82.90;;;;;;4884153;29;20463;-75
2022/06/04 00:44:00;;;;;;;14.00;9.10;;;20.50;82.80;;;;;;4885438;29;20489;-75
2022/06/04 00:47:11;;;;;;;14.10;9.57;;;20.50;82.80;;;;;;4872707;29;20483;-75
2022/06/04 00:49:40;;;;;;;12.33;9.43;;;20.40;82.80;;;;;;4866209;29;20509;-75
2022/06/04 00:52:12;;;;;;;11.70;9.13;;;20.40;82.80;;;;;;4875253;29;20464;-75
2022/06/04 00:54:41;;;;;;;11.10;9.03;;;20.40;82.70;;;;;;4874180;29;20516;-75
2022/06/04 00:57:24;;;;;;;15.50;10.63;;;20.40;82.70;;;;;;4864280;29;20580;-75
2022/06/04 01:00:02;;;;;;;12.40;9.13;;;20.30;82.70;;;;;;4869176;29;20465;-75
2022/06/04 01:02:44;;;;;;;11.37;8.50;;;20.30;82.80;;;;;;4882046;29;21011;-75
2022/06/04 01:05:22;;;;;;;12.10;9.03;;;20.30;82.80;;;;;;4884069;29;20460;-73
2022/06/04 01:08:15;;;;;;;17.70;9.60;;;20.30;82.60;;;;;;4880673;29;20461;-75
2022/06/04 01:10:51;;;;;;;13.00;9.93;;;20.20;82.50;;;;;;4876930;29;20469;-75
2022/06/04 01:13:32;;;;;;;12.70;10.23;;;20.20;82.60;;;;;;4872249;29;20832;-75
2022/06/04 01:16:07;;;;;;;12.40;9.13;;;20.10;82.60;;;;;;4876580;29;21022;-75
2022/06/04 01:18:42;;;;;;;11.10;8.70;;;20.10;82.70;;;;;;4881666;29;20973;-73
2022/06/04 01:21:20;;;;;;;11.30;8.70;;;20.10;82.90;;;;;;4860468;29;20466;-75
2022/06/04 01:24:20;;;;;;;13.17;8.90;;;20.10;82.90;;;;;;4882819;29;20889;-75
2022/06/04 01:27:05;;;;;;;19.53;9.33;;;20.10;82.90;;;;;;4885618;29;20483;-74
2022/06/04 01:29:38;;;;;;;11.80;9.07;;;20.10;82.80;;;;;;4871621;29;20495;-74
2022/06/04 01:32:11;;;;;;;11.17;9.03;;;20.00;82.50;;;;;;4880555;29;20471;-74
2022/06/04 01:34:45;;;;;;;11.57;8.77;;;20.00;82.60;;;;;;4881481;29;20967;-75
2022/06/04 01:37:20;;;;;;;15.83;9.40;;;19.90;82.60;;;;;;4887861;29;20502;-75
2022/06/04 01:42:44;;;;;;;13.13;8.77;;;19.90;82.70;;;;;;4885510;29;20484;-74
2022/06/04 01:45:16;;;;;;;16.67;9.40;;;19.90;82.70;;;;;;4875115;29;20480;-75
2022/06/04 01:47:47;;;;;;;13.10;9.00;;;19.90;82.40;;;;;;4865743;29;20472;-75
2022/06/04 01:50:19;;;;;;;12.40;8.30;;;19.80;82.30;;;;;;4868504;29;20492;-75
2022/06/04 01:52:49;;;;;;;12.57;9.23;;;19.80;82.30;;;;;;4881096;29;20468;-75
2022/06/04 01:55:21;;;;;;;11.90;8.60;;;19.70;82.40;;;;;;4880201;29;20515;-75
2022/06/04 01:57:56;;;;;;;10.97;9.13;;;19.70;82.30;;;;;;4881749;29;20491;-75
2022/06/04 02:00:28;;;;;;;12.70;8.47;;;19.70;82.30;;;;;;4885446;29;20465;-75
2022/06/04 02:03:00;;;;;;;10.70;9.23;;;19.70;82.10;;;;;;4885123;29;20455;-75
2022/06/04 02:05:33;;;;;;;14.60;8.13;;;19.60;82.00;;;;;;4885818;29;20889;-75
2022/06/04 02:08:05;;;;;;;14.57;8.77;;;19.60;81.90;;;;;;4874274;29;20459;-75
2022/06/04 02:10:36;;;;;;;15.37;8.90;;;19.50;82.00;;;;;;4884473;29;20968;-75
2022/06/04 02:13:14;;;;;;;9.27;7.20;;;19.50;82.00;;;;;;4880856;29;20825;-75
2022/06/04 02:15:49;;;;;;;11.00;8.40;;;19.50;81.90;;;;;;4880235;29;20483;-75
2022/06/04 02:18:17;;;;;;;12.10;8.53;;;19.50;81.90;;;;;;4890008;29;20549;-75
2022/06/04 02:20:45;;;;;;;10.30;8.13;;;19.50;81.80;;;;;;4884589;29;20453;-74
2022/06/04 02:23:14;;;;;;;12.80;8.97;;;19.40;81.60;;;;;;4894035;29;20460;-75
2022/06/04 02:25:42;;;;;;;14.73;8.40;;;19.40;81.60;;;;;;4889221;29;20470;-75
2022/06/04 02:28:11;;;;;;;14.00;8.80;;;19.30;81.60;;;;;;4867770;29;20483;-74
2022/06/04 02:30:48;;;;;;;12.43;9.37;;;19.30;81.60;;;;;;4881297;29;20499;-75
2022/06/04 02:33:26;;;;;;;12.83;9.00;;;19.30;81.50;;;;;;4882284;29;20998;-74
2022/06/04 02:35:58;;;;;;;12.60;8.87;;;19.20;81.50;;;;;;4867617;29;20507;-75
2022/06/04 02:38:35;;;;;;;12.47;8.97;;;19.20;81.60;;;;;;4873673;29;20456;-74
2022/06/04 02:41:07;;;;;;;13.10;7.20;;;19.20;81.50;;;;;;4886068;29;21100;-74
2022/06/04 02:43:43;;;;;;;9.30;6.73;;;19.10;81.60;;;;;;4883390;29;20464;-75
2022/06/04 02:46:20;;;;;;;10.63;7.40;;;19.10;81.40;;;;;;4878067;29;20870;-75
2022/06/04 02:48:58;;;;;;;11.53;7.90;;;19.10;81.40;;;;;;4877371;29;20482;-75
2022/06/04 02:51:33;;;;;;;12.30;8.50;;;19.00;81.30;;;;;;4878093;29;20456;-74
2022/06/04 02:54:04;;;;;;;12.17;8.10;;;19.00;81.20;;;;;;4869644;29;20475;-74
2022/06/04 02:56:34;;;;;;;14.80;8.90;;;19.00;81.10;;;;;;4877090;29;20487;-75
2022/06/04 02:59:07;;;;;;;12.13;9.03;;;19.00;81.10;;;;;;4868358;29;20475;-75
2022/06/04 03:01:41;;;;;;;11.77;9.57;;;18.90;81.00;;;;;;4880344;29;20476;-74
2022/06/04 03:04:10;;;;;;;13.53;8.50;;;18.90;81.00;;;;;;4884828;29;21065;-74
2022/06/04 03:06:39;;;;;;;13.57;9.97;;;18.90;81.00;;;;;;4877823;29;20708;-75
2022/06/04 03:09:11;;;;;;;14.90;11.20;;;18.90;81.00;;;;;;4878794;29;20493;-75
2022/06/04 03:11:43;;;;;;;13.57;10.60;;;18.90;81.00;;;;;;4879927;29;20464;-75
2022/06/04 03:14:12;;;;;;;16.13;10.60;;;18.90;81.00;;;;;;4883091;29;20462;-75
2022/06/04 03:16:42;;;;;;;15.40;10.70;;;18.90;81.00;;;;;;4884756;29;20479;-75
2022/06/04 03:19:12;;;;;;;12.03;9.30;;;18.90;81.10;;;;;;4884341;29;20486;-75
2022/06/04 03:21:42;;;;;;;14.20;11.03;;;18.90;81.30;;;;;;4875884;29;20470;-76
2022/06/04 03:24:11;;;;;;;15.37;11.43;;;18.90;81.10;;;;;;4866097;29;20466;-76
2022/06/04 03:26:39;;;;;;;17.90;11.93;;;18.80;81.10;;;;;;4887782;29;20488;-75
2022/06/04 03:29:07;;;;;;;15.10;10.97;;;18.80;81.40;;;;;;4885203;29;20527;-75
2022/06/04 03:31:36;;;;;;;19.07;10.93;;;18.80;81.50;;;;;;4884919;29;20496;-76
2022/06/04 03:34:05;;;;;;;13.27;10.60;;;18.80;81.50;;;;;;4883142;29;21024;-75
2022/06/04 03:36:34;;;;;;;15.53;10.57;;;18.80;81.60;;;;;;4864855;29;21107;-75
2022/06/04 03:39:02;;;;;;;15.20;11.57;;;18.90;81.50;;;;;;4882160;29;20463;-75
2022/06/04 03:41:37;;;;;;;18.40;11.93;;;18.90;81.50;;;;;;4879159;29;20480;-75
2022/06/04 03:44:06;;;;;;;15.07;11.83;;;18.90;81.50;;;;;;4888162;29;20460;-74
2022/06/04 03:46:34;;;;;;;15.80;11.00;;;18.90;81.50;;;;;;4885594;29;20571;-74
2022/06/04 03:49:03;;;;;;;14.80;10.77;;;18.90;81.60;;;;;;4877105;29;20461;-74
2022/06/04 03:51:31;;;;;;;13.00;10.27;;;19.00;81.60;;;;;;4866606;29;20471;-75
2022/06/04 03:53:59;;;;;;;14.50;11.00;;;19.00;81.60;;;;;;4886357;29;20526;-75
2022/06/04 03:56:28;;;;;;;15.23;10.90;;;19.00;81.70;;;;;;4870757;29;20500;-75
2022/06/04 03:58:55;;;;;;;17.20;10.67;;;19.10;81.70;;;;;;4880708;29;20474;-75
2022/06/04 04:01:27;;;;;;;15.77;11.80;;;19.10;81.70;;;;;;4881422;29;21035;-75
2022/06/04 04:03:56;;;;;;;15.63;10.80;;;19.10;81.70;;;;;;4884155;29;20452;-74
2022/06/04 04:06:27;;;;;;;17.33;11.40;;;19.10;81.70;;;;;;4880622;29;20481;-75
2022/06/04 04:08:56;;;;;;;16.17;11.27;;;19.10;81.70;;;;;;4890910;29;21031;-75
2022/06/04 04:11:26;;;;;;;20.03;11.63;;;19.10;81.70;;;;;;4890674;29;20486;-75
2022/06/04 04:13:55;;;;;;;16.87;12.10;;;19.20;81.70;;;;;;4879238;29;20471;-75
2022/06/04 04:16:23;;;;;;;14.30;11.60;;;19.20;81.70;;;;;;4880839;29;20492;-74
2022/06/04 04:18:52;;;;;;;17.03;12.00;;;19.20;81.70;;;;;;4870866;29;21030;-75
2022/06/04 04:21:22;;;;;;;17.07;11.47;;;19.20;81.80;;;;;;4887742;29;21012;-75
2022/06/04 04:23:52;;;;;;;17.23;11.27;;;19.20;81.80;;;;;;4884364;29;20552;-75
2022/06/04 04:26:20;;;;;;;16.47;12.67;;;19.30;81.80;;;;;;4865621;29;20482;-75
2022/06/04 04:28:49;;;;;;;17.13;11.67;;;19.30;81.80;;;;;;4886821;29;20454;-75
2022/06/04 04:31:19;;;;;;;17.07;12.00;;;19.30;81.80;;;;;;4858572;29;20480;-75
2022/06/04 04:33:48;;;;;;;22.13;13.80;;;19.30;81.80;;;;;;4878439;29;20476;-75
2022/06/04 04:36:16;;;;;;;19.80;13.77;;;19.30;81.90;;;;;;4871947;29;20504;-75
2022/06/04 04:38:44;;;;;;;22.30;15.40;;;19.30;81.90;;;;;;4886312;29;20451;-75
2022/06/04 04:41:15;;;;;;;19.80;14.90;;;19.30;81.90;;;;;;4889300;29;20479;-74
2022/06/04 04:43:43;;;;;;;24.10;15.70;;;19.30;82.00;;;;;;4883184;29;20466;-75
2022/06/04 04:46:13;;;;;;;20.50;14.60;;;19.40;82.10;;;;;;4886635;29;20846;-75
2022/06/04 04:48:42;;;;;;;21.20;14.70;;;19.40;82.20;;;;;;4881235;29;20906;-75
2022/06/04 04:51:13;;;;;;;20.50;14.37;;;19.40;82.30;;;;;;4886005;29;20491;-75
2022/06/04 04:53:43;;;;;;;25.13;16.03;;;19.40;82.30;;;;;;4878032;29;20470;-75
2022/06/04 04:56:14;;;;;;;22.60;14.23;;;19.40;82.30;;;;;;4869906;29;20479;-75
2022/06/04 04:58:43;;;;;;;21.10;13.60;;;19.40;82.30;;;;;;4862445;29;20549;-75
2022/06/04 05:01:15;;;;;;;20.43;13.73;;;19.30;82.40;;;;;;4882958;29;20563;-75
2022/06/04 05:03:44;;;;;;;20.53;14.33;;;19.20;82.60;;;;;;4888027;29;20470;-75
2022/06/04 05:06:14;;;;;;;20.27;14.50;;;19.20;82.90;;;;;;4884536;29;20479;-75
2022/06/04 05:08:42;;;;;;;20.10;14.30;;;19.20;83.00;;;;;;4886579;29;20471;-75
2022/06/04 05:11:12;;;;;;;20.70;15.67;;;19.20;83.20;;;;;;4876435;29;20575;-75
2022/06/04 05:13:40;;;;;;;19.03;14.33;;;19.20;83.30;;;;;;4885171;29;20451;-75
2022/06/04 05:16:10;;;;;;;22.90;14.23;;;19.20;83.40;;;;;;4883719;29;20485;-75
2022/06/04 05:18:38;;;;;;;18.23;13.60;;;19.20;83.50;;;;;;4883016;29;20466;-75
2022/06/04 05:21:11;;;;;;;19.30;12.93;;;19.20;83.60;;;;;;4867709;29;20458;-75
2022/06/04 05:23:39;;;;;;;15.37;12.10;;;19.20;83.70;;;;;;4877982;29;20457;-75
2022/06/04 05:26:07;;;;;;;18.70;13.27;;;19.20;83.80;;;;;;4874729;29;20491;-75
2022/06/04 05:28:35;;;;;;;18.63;13.37;;;19.20;83.90;;;;;;4884285;29;21099;-75
2022/06/04 05:31:03;;;;;;;16.50;12.27;;;19.20;84.00;;;;;;4872202;29;20511;-75
2022/06/04 05:33:33;;;;;;;17.77;13.37;;;19.30;84.20;;;;;;4865090;29;20469;-73
2022/06/04 05:36:02;;;;;;;18.97;13.93;;;19.30;84.20;;;;;;4885293;29;21020;-76
2022/06/04 05:38:34;;;;;;;17.47;13.67;;;19.30;84.10;;;;;;4877450;29;20464;-75
2022/06/04 05:41:04;;;;;;;18.93;14.47;;;19.30;84.00;;;;;;4879188;29;20463;-75
2022/06/04 05:43:33;;;;;;;18.23;13.40;;;19.40;84.20;;;;;;4884621;29;20463;-75
2022/06/04 05:46:03;;;;;;;17.87;12.03;;;19.40;84.30;;;;;;4877916;29;20482;-75
2022/06/04 05:48:33;;;;;;;15.67;11.70;;;19.40;84.20;;;;;;4878737;29;20478;-74
2022/06/04 05:51:01;;;;;;;16.97;12.13;;;19.40;84.40;;;;;;4873314;29;20842;-75
2022/06/04 05:53:29;;;;;;;18.97;14.07;;;19.40;84.20;;;;;;4880582;29;21020;-75
2022/06/04 05:55:57;;;;;;;16.50;12.07;;;19.50;84.30;;;;;;4884431;29;20484;-75
2022/06/04 05:58:25;;;;;;;17.70;13.87;;;19.40;84.20;;;;;;4884197;29;20460;-76
2022/06/04 06:00:59;;;;;;;20.87;14.27;;;19.40;84.40;;;;;;4882032;29;20585;-75
2022/06/04 06:03:27;;;;;;;17.23;12.27;;;19.50;84.60;;;;;;4888796;29;20462;-75
2022/06/04 06:05:58;;;;;;;16.60;13.10;;;19.50;84.50;;;;;;4891935;29;20466;-76
2022/06/04 06:08:26;;;;;;;16.80;12.23;;;19.50;84.60;;;;;;4883188;29;21029;-76
2022/06/04 06:10:53;;;;;;;17.77;12.13;;;19.60;84.50;;;;;;4889574;29;21536;-74
2022/06/04 06:13:21;;;;;;;18.70;13.00;;;19.60;84.60;;;;;;4882136;29;20448;-76
2022/06/04 06:15:49;;;;;;;15.77;13.53;;;19.70;84.50;;;;;;4879572;29;20484;-75
2022/06/04 06:18:17;;;;;;;17.97;12.67;;;19.70;84.50;;;;;;4875944;29;20468;-75
2022/06/04 06:20:45;;;;;;;17.13;13.93;;;19.70;84.40;;;;;;4873146;29;20977;-74
2022/06/04 06:23:15;;;;;;;23.03;12.93;;;19.60;84.50;;;;;;4869420;29;20453;-75
2022/06/04 06:25:43;;;;;;;18.87;14.67;;;19.60;84.60;;;;;;4876880;29;20481;-75
2022/06/04 06:28:11;;;;;;;18.73;14.23;;;19.60;84.50;;;;;;4858858;29;21001;-76
2022/06/04 06:30:38;;;;;;;17.87;14.33;;;19.70;84.60;;;;;;4876022;29;20480;-76
2022/06/04 06:33:06;;;;;;;17.77;12.83;;;19.70;84.60;;;;;;4879141;29;20451;-74
2022/06/04 06:35:34;;;;;;;16.47;13.37;;;19.70;84.50;;;;;;4882182;29;21044;-75
2022/06/04 06:38:02;;;;;;;19.30;14.93;;;19.60;84.70;;;;;;4882098;29;20511;-74
2022/06/04 06:40:32;;;;;;;17.03;14.27;;;19.60;84.70;;;;;;4863590;29;20461;-74
2022/06/04 06:42:59;;;;;;;15.00;12.37;;;19.60;84.80;;;;;;4876488;29;20497;-75
2022/06/04 06:45:27;;;;;;;15.47;13.27;;;19.60;84.90;;;;;;4863433;29;20472;-75
2022/06/04 06:47:55;;;;;;;17.27;12.70;;;19.60;85.00;;;;;;4881330;29;20465;-75
2022/06/04 06:50:24;;;;;;;15.07;11.87;;;19.70;85.10;;;;;;4874703;29;20523;-73
2022/06/04 06:52:52;;;;;;;15.83;12.70;;;19.80;85.20;;;;;;4878510;29;21095;-75
2022/06/04 06:55:20;;;;;;;14.23;12.40;;;19.90;85.10;;;;;;4871776;29;20838;-74
2022/06/04 06:57:50;;;;;;;15.93;13.30;;;20.00;84.90;;;;;;4883044;29;20487;-74
2022/06/04 07:00:18;;;;;;;14.20;11.30;;;20.10;84.80;;;;;;4879458;29;20460;-75
2022/06/04 07:02:46;;;;;;;13.30;11.23;;;20.20;84.80;;;;;;4882353;29;20478;-75
2022/06/04 07:05:14;;;;;;;13.37;11.50;;;20.20;84.80;;;;;;4883822;29;20477;-75
2022/06/04 07:07:42;;;;;;;14.37;11.20;;;20.30;84.60;;;;;;4881344;29;20987;-73
2022/06/04 07:10:14;;;;;;;16.70;11.40;;;20.40;84.50;;;;;;4880479;29;20573;-75
2022/06/04 07:12:44;;;;;;;15.03;11.83;;;20.40;84.30;;;;;;4872305;29;20602;-75
2022/06/04 07:15:13;;;;;;;19.90;11.77;;;20.50;84.30;;;;;;4877303;29;20559;-76
2022/06/04 07:17:41;;;;;;;13.80;11.07;;;20.50;84.20;;;;;;4881696;29;20474;-72
2022/06/04 07:20:10;;;;;;;12.07;10.63;;;20.60;84.10;;;;;;4875479;29;20462;-74
2022/06/04 07:22:38;;;;;;;12.77;11.10;;;20.60;84.00;;;;;;4874957;29;20455;-74
2022/06/04 07:25:07;;;;;;;13.13;11.20;;;20.60;84.00;;;;;;4883349;29;21025;-73
2022/06/04 07:27:35;;;;;;;13.23;10.47;;;20.70;83.90;;;;;;4875750;29;20498;-74
2022/06/04 07:30:03;;;;;;;11.17;9.97;;;20.80;83.90;;;;;;4875705;29;20455;-73
2022/06/04 07:32:32;;;;;;;13.40;10.60;;;20.90;83.80;;;;;;4881835;29;20841;-75
2022/06/04 07:35:00;;;;;;;12.50;10.83;;;20.90;83.70;;;;;;4878344;29;20463;-74
2022/06/04 07:37:28;;;;;;;11.77;9.50;;;21.00;83.60;;;;;;4881254;29;20482;-74
2022/06/04 07:39:56;;;;;;;11.73;10.10;;;21.00;83.40;;;;;;4876602;29;20459;-75
2022/06/04 07:42:24;;;;;;;12.10;9.87;;;21.00;83.30;;;;;;4875925;29;20475;-75
2022/06/04 07:44:51;;;;;;;13.03;9.90;;;21.00;83.40;;;;;;4874427;29;20473;-75
2022/06/04 07:47:19;;;;;;;11.57;10.10;;;21.00;83.40;;;;;;4877000;29;20495;-74
2022/06/04 07:49:49;;;;;;;11.37;9.37;;;21.10;83.20;;;;;;4873746;29;20458;-76
2022/06/04 07:52:17;;;;;;;11.10;9.30;;;21.10;83.20;;;;;;4858857;29;20552;-75
2022/06/04 07:54:45;;;;;;;12.17;9.40;;;21.10;83.00;;;;;;4873188;29;20463;-75
2022/06/04 07:57:13;;;;;;;11.43;8.87;;;21.10;83.00;;;;;;4883406;29;20484;-74
2022/06/04 07:59:41;;;;;;;12.57;9.60;;;21.20;83.00;;;;;;4881937;29;20478;-75
2022/06/04 08:02:10;;;;;;;12.53;8.60;;;21.30;82.90;;;;;;4877488;29;20487;-74
2022/06/04 08:04:38;;;;;;;12.53;10.23;;;21.30;82.90;;;;;;4876141;29;20516;-74
2022/06/04 08:07:07;;;;;;;10.80;9.20;;;21.40;82.80;;;;;;4883703;29;20537;-74
2022/06/04 08:09:35;;;;;;;11.67;9.70;;;21.50;82.70;;;;;;4878376;29;21061;-74
2022/06/04 08:12:04;;;;;;;11.70;9.13;;;21.50;82.70;;;;;;4879600;29;20484;-74
2022/06/04 08:14:32;;;;;;;10.53;8.37;;;21.60;82.60;;;;;;4874617;29;20477;-74
2022/06/04 08:17:01;;;;;;;11.00;9.40;;;21.70;82.40;;;;;;4875809;29;20497;-74
2022/06/04 08:19:32;;;;;;;11.70;8.70;;;21.70;82.20;;;;;;4883699;29;20459;-74
2022/06/04 08:22:00;;;;;;;10.83;9.10;;;21.70;82.00;;;;;;4881080;29;20573;-73
2022/06/04 08:24:30;;;;;;;12.47;8.90;;;21.70;81.80;;;;;;4882547;29;20467;-74
2022/06/04 08:26:59;;;;;;;11.20;9.00;;;21.70;81.80;;;;;;4867609;29;20533;-74
2022/06/04 08:29:30;;;;;;;10.43;9.20;;;21.70;81.60;;;;;;4880047;29;20464;-74
2022/06/04 08:31:58;;;;;;;11.63;8.90;;;21.70;81.40;;;;;;4879954;29;20500;-74
2022/06/04 08:34:26;;;;;;;10.87;8.00;;;21.60;81.50;;;;;;4879249;29;20463;-74
2022/06/04 08:36:55;;;;;;;9.13;8.00;;;21.60;81.40;;;;;;4880566;29;20491;-74
2022/06/04 08:39:23;;;;;;;9.87;8.00;;;21.60;81.50;;;;;;4858527;29;20465;-74
2022/06/04 08:42:02;;;;;;;9.80;7.70;;;21.60;81.40;;;;;;4860563;29;20969;-73
2022/06/04 08:44:34;;;;;;;10.33;8.10;;;21.60;81.20;;;;;;4872954;29;20470;-74
2022/06/04 08:47:10;;;;;;;9.50;7.37;;;21.60;81.10;;;;;;4885293;29;20485;-74
2022/06/04 08:49:42;;;;;;;9.00;7.50;;;21.60;81.10;;;;;;4879120;29;20463;-74
2022/06/04 08:52:14;;;;;;;8.53;7.63;;;21.70;81.10;;;;;;4886078;29;20494;-74
2022/06/04 08:57:42;;;;;;;11.03;8.03;;;21.80;80.90;;;;;;4862032;29;20998;-74
2022/06/04 09:00:18;;;;;;;9.27;7.80;;;21.80;80.80;;;;;;4877308;29;20455;-74
2022/06/04 09:03:01;;;;;;;11.13;8.17;;;21.80;80.70;;;;;;4878896;29;20802;-74
2022/06/04 09:05:40;;;;;;;9.90;8.00;;;21.80;80.60;;;;;;4874626;29;20489;-74
2022/06/04 09:08:16;;;;;;;10.30;7.60;;;21.90;80.50;;;;;;4872799;29;20473;-74
2022/06/04 09:10:50;;;;;;;9.40;7.50;;;21.80;80.50;;;;;;4872518;29;20478;-74
2022/06/04 09:13:25;;;;;;;10.27;8.10;;;21.90;80.50;;;;;;4875257;29;20486;-74
2022/06/04 09:15:57;;;;;;;9.73;8.17;;;21.90;80.40;;;;;;4884319;29;20485;-74
2022/06/04 09:18:32;;;;;;;9.80;7.90;;;21.90;80.20;;;;;;4881358;29;20472;-74
2022/06/04 09:21:01;;;;;;;10.37;7.37;;;21.90;80.00;;;;;;4876811;29;20464;-74
2022/06/04 09:23:38;;;;;;;10.97;8.43;;;21.90;80.10;;;;;;4882539;29;20483;-74
2022/06/04 09:26:19;;;;;;;10.67;9.17;;;21.90;80.00;;;;;;4877919;29;20470;-73
2022/06/04 09:28:58;;;;;;;9.83;7.77;;;21.90;80.10;;;;;;4881032;29;20458;-74
2022/06/04 09:31:35;;;;;;;9.00;7.57;;;22.00;80.00;;;;;;4875750;29;20477;-74
2022/06/04 09:34:07;;;;;;;10.50;8.20;;;22.10;80.00;;;;;;4877336;29;20492;-73
2022/06/04 09:36:39;;;;;;;12.27;10.50;;;22.10;79.90;;;;;;4871967;29;20490;-73
2022/06/04 09:39:20;;;;;;;13.40;10.83;;;22.20;79.90;;;;;;4866882;29;20478;-74
2022/06/04 09:41:53;;;;;;;14.73;10.57;;;22.30;80.00;;;;;;4866323;29;20470;-73
2022/06/04 09:44:24;;;;;;;11.27;9.70;;;22.30;79.90;;;;;;4862942;29;20469;-73
2022/06/04 09:46:57;;;;;;;12.80;10.30;;;22.40;79.70;;;;;;4871768;29;20514;-74
2022/06/04 09:49:33;;;;;;;12.30;9.53;;;22.40;79.70;;;;;;4867538;29;20474;-73
2022/06/04 09:52:11;;;;;;;11.80;9.90;;;22.50;79.60;;;;;;4865056;29;20460;-75
2022/06/04 09:54:41;;;;;;;11.10;9.50;;;22.50;79.70;;;;;;4875584;29;20597;-73
2022/06/04 09:57:26;;;;;;;10.77;8.77;;;22.50;79.70;;;;;;4860536;29;20685;-73
2022/06/04 09:59:58;;;;;;;10.37;8.60;;;22.60;79.60;;;;;;4872084;29;20473;-74
2022/06/04 10:02:26;;;;;;;13.50;8.10;;;22.70;79.60;;;;;;4872853;29;20546;-75
2022/06/04 10:05:03;;;;;;;9.93;7.43;;;22.70;79.50;;;;;;4872214;29;21089;-73
2022/06/04 10:07:33;;;;;;;9.03;7.00;;;22.70;79.40;;;;;;4878172;29;20494;-74
2022/06/04 10:10:13;;;;;;;9.60;6.77;;;22.70;79.20;;;;;;4877940;29;20481;-73
2022/06/04 10:15:44;;;;;;;8.37;6.30;;;22.70;78.80;;;;;;4873375;29;20479;-74
2022/06/04 10:18:28;;;;;;;8.80;6.63;;;22.60;78.80;;;;;;4870014;29;20507;-74
2022/06/04 10:21:03;;;;;;;9.70;6.77;;;22.60;78.60;;;;;;4878954;29;20471;-73
2022/06/04 10:23:41;;;;;;;9.03;6.77;;;22.60;78.90;;;;;;4883500;29;20958;-74
2022/06/04 10:26:23;;;;;;;8.00;6.17;;;22.60;78.60;;;;;;4874668;29;20476;-74
2022/06/04 10:29:05;;;;;;;9.17;6.97;;;22.50;78.30;;;;;;4873166;29;20456;-73
2022/06/04 10:31:42;;;;;;;8.10;7.20;;;22.50;77.80;;;;;;4880127;29;20482;-74
2022/06/04 10:34:31;;;;;;;9.50;7.00;;;22.50;78.30;;;;;;4874651;29;20494;-74
2022/06/04 10:37:15;;;;;;;10.17;7.47;;;22.50;78.20;;;;;;4868601;29;20498;-72
2022/06/04 10:39:51;;;;;;;9.30;7.27;;;22.50;78.10;;;;;;4885183;29;20498;-74
2022/06/04 10:42:29;;;;;;;9.00;6.80;;;22.50;77.90;;;;;;4892668;29;20476;-75
2022/06/04 10:45:11;;;;;;;10.60;7.80;;;22.60;77.80;;;;;;4888500;29;20514;-74
2022/06/04 10:47:49;;;;;;;8.90;7.17;;;22.50;77.70;;;;;;4874033;29;20827;-75
2022/06/04 10:50:29;;;;;;;8.17;6.50;;;22.50;77.60;;;;;;4887644;29;20975;-75
2022/06/04 10:53:01;;;;;;;9.83;6.83;;;22.60;77.60;;;;;;4889291;29;20473;-75
2022/06/04 10:55:40;;;;;;;10.30;7.50;;;22.60;77.50;;;;;;4886923;29;20467;-74
2022/06/04 10:58:28;;;;;;;10.10;6.97;;;22.60;77.50;;;;;;4885846;29;20480;-74
2022/06/04 11:01:02;;;;;;;9.60;7.80;;;22.60;77.30;;;;;;4889911;29;20893;-74
2022/06/04 11:03:41;;;;;;;9.43;7.30;;;22.60;77.30;;;;;;4877446;29;20463;-75
2022/06/04 11:06:14;;;;;;;10.70;7.50;;;22.70;77.30;;;;;;4881313;29;20481;-75
2022/06/04 11:08:48;;;;;;;9.80;7.10;;;22.70;77.20;;;;;;4885692;29;20481;-74
2022/06/04 11:11:24;;;;;;;8.70;6.67;;;22.70;77.10;;;;;;4892418;29;20460;-74
2022/06/04 11:13:56;;;;;;;7.33;5.83;;;22.80;77.00;;;;;;4888528;29;20493;-75
2022/06/04 11:16:28;;;;;;;14.13;6.20;;;22.80;77.00;;;;;;4875788;29;20881;-73
2022/06/04 11:19:07;;;;;;;7.83;5.90;;;22.80;76.90;;;;;;4890410;29;20467;-75
2022/06/04 11:21:40;;;;;;;10.63;6.60;;;22.90;76.80;;;;;;4893896;29;20453;-74
2022/06/04 11:24:15;;;;;;;9.37;6.97;;;22.90;76.80;;;;;;4891276;29;20454;-74
2022/06/04 11:26:47;;;;;;;8.40;7.00;;;22.90;76.70;;;;;;4888235;29;20492;-74
2022/06/04 11:29:16;;;;;;;8.93;6.90;;;22.90;76.70;;;;;;4887563;29;20452;-74
2022/06/04 11:31:54;;;;;;;8.73;7.00;;;22.90;76.60;;;;;;4893559;29;20661;-75
2022/06/04 11:34:55;;;;;;;8.83;6.90;;;22.90;76.60;;;;;;4868092;29;20508;-74
2022/06/04 11:37:36;;;;;;;9.13;7.13;;;22.90;76.50;;;;;;4888369;29;20477;-75
2022/06/04 11:40:21;;;;;;;8.03;6.47;;;22.90;76.50;;;;;;4883198;29;20477;-75
2022/06/04 11:42:56;;;;;;;9.10;6.50;;;22.90;76.50;;;;;;4883482;29;21173;-74
2022/06/04 11:45:42;;;;;;;10.50;6.60;;;22.90;76.50;;;;;;4885012;29;20475;-75
2022/06/04 11:48:25;;;;;;;7.20;5.73;;;23.00;76.50;;;;;;4884854;29;20883;-74
2022/06/04 11:51:04;;;;;;;8.40;6.90;;;23.00;76.40;;;;;;4894652;29;21007;-73
2022/06/04 11:53:40;;;;;;;7.80;6.87;;;23.00;76.50;;;;;;4889846;29;20476;-75
2022/06/04 11:56:17;;;;;;;8.70;6.30;;;23.00;76.60;;;;;;4855463;29;20497;-74
2022/06/04 11:59:04;;;;;;;11.13;6.37;;;23.00;76.60;;;;;;4889566;29;20469;-75
2022/06/04 12:01:38;;;;;;;8.90;6.70;;;23.00;76.50;;;;;;4888108;29;20492;-74
2022/06/04 12:04:14;;;;;;;7.40;6.33;;;23.00;76.60;;;;;;4893348;29;20466;-74
2022/06/04 12:06:48;;;;;;;10.03;7.27;;;23.10;76.60;;;;;;4868906;29;20486;-74
2022/06/04 12:09:27;;;;;;;9.00;7.13;;;23.10;76.60;;;;;;4894039;29;20458;-74
2022/06/04 12:12:01;;;;;;;9.60;7.17;;;23.10;76.70;;;;;;4887954;29;20961;-73
2022/06/04 12:14:37;;;;;;;10.83;7.17;;;23.10;76.80;;;;;;4888023;29;20499;-75
2022/06/04 12:17:21;;;;;;;11.97;8.13;;;23.10;76.80;;;;;;4889062;29;20860;-75
2022/06/04 12:25:36;;;;;;;12.37;7.60;;;23.20;77.00;;;;;;4893052;29;20451;-75
2022/06/04 12:28:19;;;;;;;10.90;7.73;;;23.20;77.00;;;;;;4879134;29;20469;-74
2022/06/04 12:30:47;;;;;;;10.80;8.00;;;23.20;77.00;;;;;;4886109;29;20487;-74
2022/06/04 12:33:26;;;;;;;9.43;7.40;;;23.20;77.10;;;;;;4874445;29;20467;-75
2022/06/04 12:35:57;;;;;;;11.87;8.87;;;23.30;77.10;;;;;;4888143;29;20501;-75
2022/06/04 12:38:27;;;;;;;9.40;7.57;;;23.30;77.20;;;;;;4882148;29;20463;-75
2022/06/04 12:41:08;;;;;;;9.40;7.20;;;23.40;77.20;;;;;;4891931;29;20454;-75
2022/06/04 12:43:38;;;;;;;8.73;7.63;;;23.40;77.20;;;;;;4884958;29;20839;-75
2022/06/04 12:46:15;;;;;;;8.63;7.70;;;23.40;77.20;;;;;;4884233;29;20479;-75
2022/06/04 12:49:05;;;;;;;8.97;7.10;;;23.50;77.20;;;;;;4887675;29;20455;-75
2022/06/04 12:51:45;;;;;;;9.20;7.57;;;23.50;77.10;;;;;;4892204;29;20468;-74
2022/06/04 12:54:44;;;;;;;11.67;7.30;;;23.60;77.20;;;;;;4880661;29;20478;-75
2022/06/04 12:57:22;;;;;;;10.57;8.07;;;23.70;77.10;;;;;;4881006;29;20498;-75
2022/06/04 12:59:52;;;;;;;8.23;6.87;;;23.70;76.80;;;;;;4889420;29;20922;-75
2022/06/04 13:02:33;;;;;;;9.10;6.50;;;23.70;76.60;;;;;;4889880;29;20478;-74
2022/06/04 13:05:17;;;;;;;9.60;7.00;;;23.70;76.50;;;;;;4882731;29;20465;-75
2022/06/04 13:07:56;;;;;;;10.90;7.13;;;23.80;76.40;;;;;;4893230;29;20469;-75
2022/06/04 13:10:37;;;;;;;8.80;6.80;;;23.80;76.40;;;;;;4888975;29;20976;-74
2022/06/04 13:13:20;;;;;;;11.40;6.90;;;23.80;76.30;;;;;;4878663;29;20470;-74
2022/06/04 13:15:53;;;;;;;10.63;6.37;;;23.90;76.20;;;;;;4889482;29;20483;-75
2022/06/04 13:18:25;;;;;;;7.90;6.23;;;23.90;76.00;;;;;;4888975;29;20517;-77
2022/06/04 13:20:57;;;;;;;7.53;5.90;;;23.90;75.90;;;;;;4871126;29;20454;-75
2022/06/04 13:23:32;;;;;;;6.90;5.50;;;24.00;75.90;;;;;;4889769;29;20460;-75